Terminal Aerodrome Forecast
Issued by NWS

Home | Current Version | Previous Version | Text Only | Print | Product List | Glossary On
Versions: 1 2 3 4 5 6 7 8 9 10 11 12 13 14 15 16 17 18
000
FTUS43 KAPX 281720
TAFMBL
TAF
KMBL 281720Z 2818/2918 16005KT 3SM -SN OVC025
     FM282000 16004KT 3SM -SN OVC022
     FM290700 14003KT 5SM -FZDZSN OVC018
     FM291300 15006KT 6SM -DZ BR OVC015
      AMD LTD TO CLD VIS AND WIND=

USA.gov is the U.S. government's official web portal to all federal, state and local government web resources and services.